sensor_id;sensor_type;location;lat;lon;timestamp;P1;durP1;ratioP1;P2;durP2;ratioP2
22425;SDS011;11380;50.822;15.790;2022-12-18T00:04:18;23.03;;;21.03;;
22425;SDS011;11380;50.822;15.790;2022-12-18T00:09:28;22.60;;;20.57;;
22425;SDS011;11380;50.822;15.790;2022-12-18T00:14:37;20.57;;;19.23;;
22425;SDS011;11380;50.822;15.790;2022-12-18T00:19:44;25.90;;;21.20;;
22425;SDS011;11380;50.822;15.790;2022-12-18T00:24:51;23.40;;;20.93;;
22425;SDS011;11380;50.822;15.790;2022-12-18T00:29:58;22.27;;;20.45;;
22425;SDS011;11380;50.822;15.790;2022-12-18T00:35:05;21.63;;;19.83;;
22425;SDS011;11380;50.822;15.790;2022-12-18T00:40:12;24.93;;;22.40;;
22425;SDS011;11380;50.822;15.790;2022-12-18T00:45:19;22.67;;;20.65;;
22425;SDS011;11380;50.822;15.790;2022-12-18T00:50:27;22.27;;;20.40;;
22425;SDS011;11380;50.822;15.790;2022-12-18T00:55:36;22.43;;;20.60;;
22425;SDS011;11380;50.822;15.790;2022-12-18T01:00:44;22.77;;;20.63;;
22425;SDS011;11380;50.822;15.790;2022-12-18T01:05:51;18.62;;;17.20;;
22425;SDS011;11380;50.822;15.790;2022-12-18T01:10:57;23.12;;;21.17;;
22425;SDS011;11380;50.822;15.790;2022-12-18T01:16:05;20.30;;;18.52;;
22425;SDS011;11380;50.822;15.790;2022-12-18T01:21:14;19.90;;;18.50;;
22425;SDS011;11380;50.822;15.790;2022-12-18T01:26:21;21.23;;;19.27;;
22425;SDS011;11380;50.822;15.790;2022-12-18T01:31:31;20.37;;;18.40;;
22425;SDS011;11380;50.822;15.790;2022-12-18T01:36:39;22.37;;;20.17;;
22425;SDS011;11380;50.822;15.790;2022-12-18T01:41:46;21.20;;;19.55;;
22425;SDS011;11380;50.822;15.790;2022-12-18T01:47:09;19.37;;;18.02;;
22425;SDS011;11380;50.822;15.790;2022-12-18T01:52:32;19.43;;;17.57;;
22425;SDS011;11380;50.822;15.790;2022-12-18T01:57:40;21.77;;;18.73;;
22425;SDS011;11380;50.822;15.790;2022-12-18T02:02:47;22.00;;;20.13;;
22425;SDS011;11380;50.822;15.790;2022-12-18T02:13:23;21.68;;;19.70;;
22425;SDS011;11380;50.822;15.790;2022-12-18T02:19:00;25.87;;;20.23;;
22425;SDS011;11380;50.822;15.790;2022-12-18T02:29:52;24.33;;;21.97;;
22425;SDS011;11380;50.822;15.790;2022-12-18T02:35:03;23.43;;;21.07;;
22425;SDS011;11380;50.822;15.790;2022-12-18T02:40:11;22.77;;;20.75;;
22425;SDS011;11380;50.822;15.790;2022-12-18T02:45:20;22.27;;;20.47;;
22425;SDS011;11380;50.822;15.790;2022-12-18T02:56:07;22.53;;;20.17;;
22425;SDS011;11380;50.822;15.790;2022-12-18T03:01:43;29.02;;;22.90;;
22425;SDS011;11380;50.822;15.790;2022-12-18T03:07:05;23.07;;;20.87;;
22425;SDS011;11380;50.822;15.790;2022-12-18T03:12:17;24.33;;;22.17;;
22425;SDS011;11380;50.822;15.790;2022-12-18T03:17:30;24.30;;;21.90;;
22425;SDS011;11380;50.822;15.790;2022-12-18T03:22:39;20.50;;;18.87;;
22425;SDS011;11380;50.822;15.790;2022-12-18T03:27:51;35.27;;;19.57;;
22425;SDS011;11380;50.822;15.790;2022-12-18T03:38:14;21.12;;;18.98;;
22425;SDS011;11380;50.822;15.790;2022-12-18T03:43:35;21.17;;;18.23;;
22425;SDS011;11380;50.822;15.790;2022-12-18T03:49:08;26.10;;;18.20;;
22425;SDS011;11380;50.822;15.790;2022-12-18T03:54:22;22.10;;;18.35;;
22425;SDS011;11380;50.822;15.790;2022-12-18T03:59:30;21.10;;;19.27;;
22425;SDS011;11380;50.822;15.790;2022-12-18T04:04:38;21.35;;;18.27;;
22425;SDS011;11380;50.822;15.790;2022-12-18T04:09:48;19.73;;;17.83;;
22425;SDS011;11380;50.822;15.790;2022-12-18T04:14:57;20.63;;;18.50;;
22425;SDS011;11380;50.822;15.790;2022-12-18T04:20:04;19.97;;;18.10;;
22425;SDS011;11380;50.822;15.790;2022-12-18T04:25:11;23.83;;;18.40;;
22425;SDS011;11380;50.822;15.790;2022-12-18T04:30:18;21.45;;;19.50;;
22425;SDS011;11380;50.822;15.790;2022-12-18T04:40:30;18.90;;;16.47;;
22425;SDS011;11380;50.822;15.790;2022-12-18T04:45:37;18.12;;;16.87;;
22425;SDS011;11380;50.822;15.790;2022-12-18T04:50:43;11.40;;;10.60;;
22425;SDS011;11380;50.822;15.790;2022-12-18T04:55:50;27.77;;;17.13;;
22425;SDS011;11380;50.822;15.790;2022-12-18T05:01:10;27.48;;;18.75;;
22425;SDS011;11380;50.822;15.790;2022-12-18T05:06:19;17.85;;;16.45;;
22425;SDS011;11380;50.822;15.790;2022-12-18T05:11:26;17.90;;;16.43;;
22425;SDS011;11380;50.822;15.790;2022-12-18T05:16:32;17.97;;;16.40;;
22425;SDS011;11380;50.822;15.790;2022-12-18T05:21:38;19.62;;;17.70;;
22425;SDS011;11380;50.822;15.790;2022-12-18T05:26:45;19.30;;;17.17;;
22425;SDS011;11380;50.822;15.790;2022-12-18T05:31:51;19.90;;;18.00;;
22425;SDS011;11380;50.822;15.790;2022-12-18T05:36:58;18.83;;;17.23;;
22425;SDS011;11380;50.822;15.790;2022-12-18T05:42:05;18.67;;;17.10;;
22425;SDS011;11380;50.822;15.790;2022-12-18T05:47:12;21.45;;;18.67;;
22425;SDS011;11380;50.822;15.790;2022-12-18T05:57:25;17.67;;;16.30;;
22425;SDS011;11380;50.822;15.790;2022-12-18T06:02:31;19.10;;;16.17;;
22425;SDS011;11380;50.822;15.790;2022-12-18T06:07:38;19.42;;;16.27;;
22425;SDS011;11380;50.822;15.790;2022-12-18T06:12:45;18.45;;;16.32;;
22425;SDS011;11380;50.822;15.790;2022-12-18T06:17:52;20.93;;;16.30;;
22425;SDS011;11380;50.822;15.790;2022-12-18T06:22:59;16.13;;;14.83;;
22425;SDS011;11380;50.822;15.790;2022-12-18T06:33:11;13.83;;;12.73;;
22425;SDS011;11380;50.822;15.790;2022-12-18T06:38:19;34.20;;;19.50;;
22425;SDS011;11380;50.822;15.790;2022-12-18T06:43:26;15.30;;;14.10;;
22425;SDS011;11380;50.822;15.790;2022-12-18T06:48:33;16.73;;;14.47;;
22425;SDS011;11380;50.822;15.790;2022-12-18T06:53:40;17.37;;;14.53;;
22425;SDS011;11380;50.822;15.790;2022-12-18T06:58:46;14.87;;;13.87;;
22425;SDS011;11380;50.822;15.790;2022-12-18T07:03:54;19.83;;;17.23;;
22425;SDS011;11380;50.822;15.790;2022-12-18T07:09:01;17.57;;;15.57;;
22425;SDS011;11380;50.822;15.790;2022-12-18T07:14:07;17.83;;;15.57;;
22425;SDS011;11380;50.822;15.790;2022-12-18T07:19:14;16.00;;;14.80;;
22425;SDS011;11380;50.822;15.790;2022-12-18T07:24:21;14.13;;;12.95;;
22425;SDS011;11380;50.822;15.790;2022-12-18T07:29:28;22.93;;;15.37;;
22425;SDS011;11380;50.822;15.790;2022-12-18T07:34:35;22.03;;;16.63;;
22425;SDS011;11380;50.822;15.790;2022-12-18T07:39:42;16.40;;;14.77;;
22425;SDS011;11380;50.822;15.790;2022-12-18T07:44:50;15.13;;;13.63;;
22425;SDS011;11380;50.822;15.790;2022-12-18T07:49:57;27.73;;;17.20;;
22425;SDS011;11380;50.822;15.790;2022-12-18T08:00:11;20.10;;;15.27;;
22425;SDS011;11380;50.822;15.790;2022-12-18T08:05:19;19.03;;;17.07;;
22425;SDS011;11380;50.822;15.790;2022-12-18T08:10:26;19.20;;;16.20;;
22425;SDS011;11380;50.822;15.790;2022-12-18T08:15:32;18.43;;;16.53;;
22425;SDS011;11380;50.822;15.790;2022-12-18T08:20:43;20.77;;;16.53;;
22425;SDS011;11380;50.822;15.790;2022-12-18T08:25:51;17.17;;;15.20;;
22425;SDS011;11380;50.822;15.790;2022-12-18T08:30:58;16.50;;;14.93;;
22425;SDS011;11380;50.822;15.790;2022-12-18T08:36:04;16.37;;;14.70;;
22425;SDS011;11380;50.822;15.790;2022-12-18T08:41:15;23.80;;;19.07;;
22425;SDS011;11380;50.822;15.790;2022-12-18T08:46:23;19.57;;;17.80;;
22425;SDS011;11380;50.822;15.790;2022-12-18T08:51:32;32.63;;;24.67;;
22425;SDS011;11380;50.822;15.790;2022-12-18T08:56:41;35.70;;;28.93;;
22425;SDS011;11380;50.822;15.790;2022-12-18T09:01:49;58.10;;;33.63;;
22425;SDS011;11380;50.822;15.790;2022-12-18T09:06:59;50.17;;;28.70;;
22425;SDS011;11380;50.822;15.790;2022-12-18T09:12:06;44.27;;;32.47;;
22425;SDS011;11380;50.822;15.790;2022-12-18T09:17:13;44.17;;;29.00;;
22425;SDS011;11380;50.822;15.790;2022-12-18T09:22:20;44.40;;;29.15;;
22425;SDS011;11380;50.822;15.790;2022-12-18T09:27:27;47.33;;;31.87;;
22425;SDS011;11380;50.822;15.790;2022-12-18T09:37:39;43.77;;;36.33;;
22425;SDS011;11380;50.822;15.790;2022-12-18T09:42:48;43.80;;;32.37;;
22425;SDS011;11380;50.822;15.790;2022-12-18T09:48:01;44.00;;;33.07;;
22425;SDS011;11380;50.822;15.790;2022-12-18T09:53:12;38.57;;;32.80;;
22425;SDS011;11380;50.822;15.790;2022-12-18T10:03:36;39.80;;;33.87;;
22425;SDS011;11380;50.822;15.790;2022-12-18T10:09:04;41.60;;;36.13;;
22425;SDS011;11380;50.822;15.790;2022-12-18T10:25:36;43.08;;;37.55;;
22425;SDS011;11380;50.822;15.790;2022-12-18T10:30:59;38.27;;;34.57;;
22425;SDS011;11380;50.822;15.790;2022-12-18T10:36:07;37.13;;;33.13;;
22425;SDS011;11380;50.822;15.790;2022-12-18T10:46:32;38.08;;;33.83;;
22425;SDS011;11380;50.822;15.790;2022-12-18T10:51:39;38.20;;;34.83;;
22425;SDS011;11380;50.822;15.790;2022-12-18T11:01:56;37.63;;;33.63;;
22425;SDS011;11380;50.822;15.790;2022-12-18T11:07:05;34.10;;;31.00;;
22425;SDS011;11380;50.822;15.790;2022-12-18T11:12:19;50.33;;;39.57;;
22425;SDS011;11380;50.822;15.790;2022-12-18T11:17:25;54.63;;;42.40;;
22425;SDS011;11380;50.822;15.790;2022-12-18T11:22:40;49.47;;;40.63;;
22425;SDS011;11380;50.822;15.790;2022-12-18T11:27:54;64.33;;;42.63;;
22425;SDS011;11380;50.822;15.790;2022-12-18T11:33:04;101.38;;;52.20;;
22425;SDS011;11380;50.822;15.790;2022-12-18T11:38:24;83.33;;;50.77;;
22425;SDS011;11380;50.822;15.790;2022-12-18T11:43:47;87.17;;;63.10;;
22425;SDS011;11380;50.822;15.790;2022-12-18T11:49:03;52.80;;;44.30;;
22425;SDS011;11380;50.822;15.790;2022-12-18T11:54:18;60.10;;;45.47;;
22425;SDS011;11380;50.822;15.790;2022-12-18T12:04:49;53.53;;;42.23;;
22425;SDS011;11380;50.822;15.790;2022-12-18T12:10:18;42.60;;;37.90;;
22425;SDS011;11380;50.822;15.790;2022-12-18T12:21:28;46.13;;;40.12;;
22425;SDS011;11380;50.822;15.790;2022-12-18T12:26:50;47.67;;;41.87;;
22425;SDS011;11380;50.822;15.790;2022-12-18T12:37:54;48.47;;;41.40;;
22425;SDS011;11380;50.822;15.790;2022-12-18T12:43:12;60.90;;;44.23;;
22425;SDS011;11380;50.822;15.790;2022-12-18T12:54:02;55.40;;;42.97;;
22425;SDS011;11380;50.822;15.790;2022-12-18T12:59:19;58.15;;;44.73;;
22425;SDS011;11380;50.822;15.790;2022-12-18T13:15:36;53.08;;;40.17;;
22425;SDS011;11380;50.822;15.790;2022-12-18T13:36:47;49.13;;;40.17;;
22425;SDS011;11380;50.822;15.790;2022-12-18T13:52:43;43.23;;;36.37;;
22425;SDS011;11380;50.822;15.790;2022-12-18T13:57:50;41.40;;;36.07;;
22425;SDS011;11380;50.822;15.790;2022-12-18T14:03:25;38.30;;;33.57;;
22425;SDS011;11380;50.822;15.790;2022-12-18T14:08:38;38.53;;;34.37;;
22425;SDS011;11380;50.822;15.790;2022-12-18T14:13:47;38.70;;;33.60;;
22425;SDS011;11380;50.822;15.790;2022-12-18T14:18:55;37.70;;;31.13;;
22425;SDS011;11380;50.822;15.790;2022-12-18T14:24:20;34.37;;;30.67;;
22425;SDS011;11380;50.822;15.790;2022-12-18T14:29:28;39.70;;;30.95;;
22425;SDS011;11380;50.822;15.790;2022-12-18T14:34:37;36.43;;;32.20;;
22425;SDS011;11380;50.822;15.790;2022-12-18T14:39:53;39.20;;;31.60;;
22425;SDS011;11380;50.822;15.790;2022-12-18T14:51:03;46.87;;;34.43;;
22425;SDS011;11380;50.822;15.790;2022-12-18T15:01:36;54.50;;;34.27;;
22425;SDS011;11380;50.822;15.790;2022-12-18T15:06:46;42.40;;;32.70;;
22425;SDS011;11380;50.822;15.790;2022-12-18T15:11:57;46.53;;;30.23;;
22425;SDS011;11380;50.822;15.790;2022-12-18T15:17:28;45.33;;;28.77;;
22425;SDS011;11380;50.822;15.790;2022-12-18T15:22:30;37.33;;;28.43;;
22425;SDS011;11380;50.822;15.790;2022-12-18T15:27:40;30.90;;;27.33;;
22425;SDS011;11380;50.822;15.790;2022-12-18T15:32:51;42.85;;;27.52;;
22425;SDS011;11380;50.822;15.790;2022-12-18T15:38:18;25.63;;;20.47;;
22425;SDS011;11380;50.822;15.790;2022-12-18T15:48:50;35.03;;;25.70;;
22425;SDS011;11380;50.822;15.790;2022-12-18T15:54:04;33.80;;;26.87;;
22425;SDS011;11380;50.822;15.790;2022-12-18T15:59:18;29.75;;;25.72;;
22425;SDS011;11380;50.822;15.790;2022-12-18T16:04:25;26.00;;;22.03;;
22425;SDS011;11380;50.822;15.790;2022-12-18T16:09:32;28.90;;;20.43;;
22425;SDS011;11380;50.822;15.790;2022-12-18T16:14:38;20.23;;;18.20;;
22425;SDS011;11380;50.822;15.790;2022-12-18T16:19:45;23.40;;;19.43;;
22425;SDS011;11380;50.822;15.790;2022-12-18T16:24:53;23.02;;;19.42;;
22425;SDS011;11380;50.822;15.790;2022-12-18T16:30:01;20.87;;;17.80;;
22425;SDS011;11380;50.822;15.790;2022-12-18T16:35:13;20.23;;;18.47;;
22425;SDS011;11380;50.822;15.790;2022-12-18T16:40:18;21.33;;;17.45;;
22425;SDS011;11380;50.822;15.790;2022-12-18T16:45:25;17.92;;;16.25;;
22425;SDS011;11380;50.822;15.790;2022-12-18T16:50:33;20.57;;;18.77;;
22425;SDS011;11380;50.822;15.790;2022-12-18T16:55:43;21.00;;;18.80;;
22425;SDS011;11380;50.822;15.790;2022-12-18T17:00:50;17.90;;;16.17;;
22425;SDS011;11380;50.822;15.790;2022-12-18T17:06:01;18.23;;;16.67;;
22425;SDS011;11380;50.822;15.790;2022-12-18T17:11:11;11.55;;;10.85;;
22425;SDS011;11380;50.822;15.790;2022-12-18T17:16:18;38.75;;;24.07;;
22425;SDS011;11380;50.822;15.790;2022-12-18T17:21:25;23.83;;;18.82;;
22425;SDS011;11380;50.822;15.790;2022-12-18T17:26:32;13.88;;;12.88;;
22425;SDS011;11380;50.822;15.790;2022-12-18T17:31:39;14.57;;;13.30;;
22425;SDS011;11380;50.822;15.790;2022-12-18T17:36:46;15.60;;;13.57;;
22425;SDS011;11380;50.822;15.790;2022-12-18T17:41:53;14.93;;;13.53;;
22425;SDS011;11380;50.822;15.790;2022-12-18T17:47:02;15.40;;;14.03;;
22425;SDS011;11380;50.822;15.790;2022-12-18T17:52:10;17.42;;;15.75;;
22425;SDS011;11380;50.822;15.790;2022-12-18T17:57:18;22.20;;;17.02;;
22425;SDS011;11380;50.822;15.790;2022-12-18T18:02:26;14.95;;;13.43;;
22425;SDS011;11380;50.822;15.790;2022-12-18T18:07:34;24.47;;;19.63;;
22425;SDS011;11380;50.822;15.790;2022-12-18T18:12:41;27.80;;;22.60;;
22425;SDS011;11380;50.822;15.790;2022-12-18T18:18:05;29.50;;;22.67;;
22425;SDS011;11380;50.822;15.790;2022-12-18T18:23:14;19.73;;;17.12;;
22425;SDS011;11380;50.822;15.790;2022-12-18T18:28:22;29.75;;;16.65;;
22425;SDS011;11380;50.822;15.790;2022-12-18T18:33:29;23.73;;;16.75;;
22425;SDS011;11380;50.822;15.790;2022-12-18T18:38:36;22.00;;;17.53;;
22425;SDS011;11380;50.822;15.790;2022-12-18T18:43:45;18.07;;;15.33;;
22425;SDS011;11380;50.822;15.790;2022-12-18T18:48:52;19.50;;;14.57;;
22425;SDS011;11380;50.822;15.790;2022-12-18T18:54:00;22.33;;;16.13;;
22425;SDS011;11380;50.822;15.790;2022-12-18T18:59:08;14.47;;;13.15;;
22425;SDS011;11380;50.822;15.790;2022-12-18T19:04:16;37.10;;;21.57;;
22425;SDS011;11380;50.822;15.790;2022-12-18T19:09:23;14.53;;;13.08;;
22425;SDS011;11380;50.822;15.790;2022-12-18T19:14:30;19.73;;;16.83;;
22425;SDS011;11380;50.822;15.790;2022-12-18T19:19:38;15.60;;;13.33;;
22425;SDS011;11380;50.822;15.790;2022-12-18T19:24:45;20.57;;;17.37;;
22425;SDS011;11380;50.822;15.790;2022-12-18T19:29:51;26.23;;;17.60;;
22425;SDS011;11380;50.822;15.790;2022-12-18T19:34:58;18.93;;;14.97;;
22425;SDS011;11380;50.822;15.790;2022-12-18T19:40:06;15.00;;;13.80;;
22425;SDS011;11380;50.822;15.790;2022-12-18T19:45:16;12.90;;;11.80;;
22425;SDS011;11380;50.822;15.790;2022-12-18T19:50:25;16.87;;;13.55;;
22425;SDS011;11380;50.822;15.790;2022-12-18T19:55:32;18.10;;;15.37;;
22425;SDS011;11380;50.822;15.790;2022-12-18T20:00:41;17.50;;;15.70;;
22425;SDS011;11380;50.822;15.790;2022-12-18T20:05:48;15.77;;;14.17;;
22425;SDS011;11380;50.822;15.790;2022-12-18T20:10:56;20.47;;;16.17;;
22425;SDS011;11380;50.822;15.790;2022-12-18T20:16:02;16.80;;;12.83;;
22425;SDS011;11380;50.822;15.790;2022-12-18T20:21:10;20.70;;;16.75;;
22425;SDS011;11380;50.822;15.790;2022-12-18T20:26:18;13.03;;;12.13;;
22425;SDS011;11380;50.822;15.790;2022-12-18T20:31:27;23.60;;;17.53;;
22425;SDS011;11380;50.822;15.790;2022-12-18T20:36:34;18.03;;;16.17;;
22425;SDS011;11380;50.822;15.790;2022-12-18T20:41:42;15.07;;;13.77;;
22425;SDS011;11380;50.822;15.790;2022-12-18T20:46:55;24.17;;;16.63;;
22425;SDS011;11380;50.822;15.790;2022-12-18T20:52:05;21.57;;;16.00;;
22425;SDS011;11380;50.822;15.790;2022-12-18T20:57:11;19.87;;;16.40;;
22425;SDS011;11380;50.822;15.790;2022-12-18T21:02:19;15.27;;;13.97;;
22425;SDS011;11380;50.822;15.790;2022-12-18T21:07:29;15.30;;;14.00;;
22425;SDS011;11380;50.822;15.790;2022-12-18T21:12:36;18.00;;;16.40;;
22425;SDS011;11380;50.822;15.790;2022-12-18T21:17:47;13.27;;;12.43;;
22425;SDS011;11380;50.822;15.790;2022-12-18T21:22:58;26.47;;;18.50;;
22425;SDS011;11380;50.822;15.790;2022-12-18T21:28:08;16.75;;;15.45;;
22425;SDS011;11380;50.822;15.790;2022-12-18T21:33:16;18.92;;;17.42;;
22425;SDS011;11380;50.822;15.790;2022-12-18T21:38:24;17.90;;;16.43;;
22425;SDS011;11380;50.822;15.790;2022-12-18T21:43:33;18.03;;;16.30;;
22425;SDS011;11380;50.822;15.790;2022-12-18T21:48:59;19.15;;;17.37;;
22425;SDS011;11380;50.822;15.790;2022-12-18T21:54:07;26.65;;;18.10;;
22425;SDS011;11380;50.822;15.790;2022-12-18T21:59:15;31.93;;;22.23;;
22425;SDS011;11380;50.822;15.790;2022-12-18T22:04:26;23.10;;;20.73;;
22425;SDS011;11380;50.822;15.790;2022-12-18T22:09:33;18.83;;;16.90;;
22425;SDS011;11380;50.822;15.790;2022-12-18T22:14:41;17.33;;;15.87;;
22425;SDS011;11380;50.822;15.790;2022-12-18T22:19:48;18.90;;;17.37;;
22425;SDS011;11380;50.822;15.790;2022-12-18T22:24:55;21.00;;;18.73;;
22425;SDS011;11380;50.822;15.790;2022-12-18T22:30:03;19.03;;;17.83;;
22425;SDS011;11380;50.822;15.790;2022-12-18T22:35:12;20.53;;;19.27;;
22425;SDS011;11380;50.822;15.790;2022-12-18T22:40:21;22.25;;;20.65;;
22425;SDS011;11380;50.822;15.790;2022-12-18T22:45:28;23.02;;;21.80;;
22425;SDS011;11380;50.822;15.790;2022-12-18T22:50:36;22.97;;;21.67;;
22425;SDS011;11380;50.822;15.790;2022-12-18T22:55:43;27.25;;;25.65;;
22425;SDS011;11380;50.822;15.790;2022-12-18T23:00:49;28.80;;;27.23;;
22425;SDS011;11380;50.822;15.790;2022-12-18T23:06:08;32.37;;;30.50;;
22425;SDS011;11380;50.822;15.790;2022-12-18T23:11:16;31.10;;;29.40;;
22425;SDS011;11380;50.822;15.790;2022-12-18T23:16:21;31.52;;;29.82;;
22425;SDS011;11380;50.822;15.790;2022-12-18T23:21:27;32.48;;;30.68;;
22425;SDS011;11380;50.822;15.790;2022-12-18T23:26:35;32.97;;;31.07;;
22425;SDS011;11380;50.822;15.790;2022-12-18T23:31:42;33.10;;;31.30;;
22425;SDS011;11380;50.822;15.790;2022-12-18T23:36:49;33.98;;;31.97;;
22425;SDS011;11380;50.822;15.790;2022-12-18T23:41:58;35.00;;;33.00;;
22425;SDS011;11380;50.822;15.790;2022-12-18T23:47:05;34.60;;;32.70;;
22425;SDS011;11380;50.822;15.790;2022-12-18T23:52:12;34.75;;;32.75;;
22425;SDS011;11380;50.822;15.790;2022-12-18T23:57:18;34.27;;;32.35;;
